sensor_id;sensor_type;location;lat;lon;timestamp;temperature;humidity
10123;DHT22;5101;49.038;8.710;2023-07-30T00:01:40;19.20;99.90
10123;DHT22;5101;49.038;8.710;2023-07-30T00:04:06;19.10;99.90
10123;DHT22;5101;49.038;8.710;2023-07-30T00:06:31;19.10;99.90
10123;DHT22;5101;49.038;8.710;2023-07-30T00:08:57;19.10;99.90
10123;DHT22;5101;49.038;8.710;2023-07-30T00:11:22;19.00;99.90
10123;DHT22;5101;49.038;8.710;2023-07-30T00:13:48;19.00;99.90
10123;DHT22;5101;49.038;8.710;2023-07-30T00:16:13;19.00;99.90
10123;DHT22;5101;49.038;8.710;2023-07-30T00:18:39;19.00;99.90
10123;DHT22;5101;49.038;8.710;2023-07-30T00:21:04;18.90;99.90
10123;DHT22;5101;49.038;8.710;2023-07-30T00:23:30;18.90;99.90
10123;DHT22;5101;49.038;8.710;2023-07-30T00:25:55;18.80;99.90
10123;DHT22;5101;49.038;8.710;2023-07-30T00:28:21;18.80;99.90
10123;DHT22;5101;49.038;8.710;2023-07-30T00:30:46;18.80;99.90
10123;DHT22;5101;49.038;8.710;2023-07-30T00:33:12;18.80;99.90
10123;DHT22;5101;49.038;8.710;2023-07-30T00:35:37;18.80;99.90
10123;DHT22;5101;49.038;8.710;2023-07-30T00:38:03;18.70;99.90
10123;DHT22;5101;49.038;8.710;2023-07-30T00:40:29;18.70;99.90
10123;DHT22;5101;49.038;8.710;2023-07-30T00:42:54;18.70;99.90
10123;DHT22;5101;49.038;8.710;2023-07-30T00:45:20;18.70;99.90
10123;DHT22;5101;49.038;8.710;2023-07-30T00:47:45;18.70;99.90
10123;DHT22;5101;49.038;8.710;2023-07-30T00:50:13;18.70;99.90
10123;DHT22;5101;49.038;8.710;2023-07-30T00:52:39;18.70;99.90
10123;DHT22;5101;49.038;8.710;2023-07-30T00:55:07;18.60;99.90
10123;DHT22;5101;49.038;8.710;2023-07-30T00:57:33;18.60;99.90
10123;DHT22;5101;49.038;8.710;2023-07-30T00:59:59;18.60;99.90
10123;DHT22;5101;49.038;8.710;2023-07-30T01:02:27;18.50;99.90
10123;DHT22;5101;49.038;8.710;2023-07-30T01:04:53;18.50;99.90
10123;DHT22;5101;49.038;8.710;2023-07-30T01:07:19;18.40;99.90
10123;DHT22;5101;49.038;8.710;2023-07-30T01:09:44;18.40;99.90
10123;DHT22;5101;49.038;8.710;2023-07-30T01:12:10;18.40;99.90
10123;DHT22;5101;49.038;8.710;2023-07-30T01:14:36;18.40;99.90
10123;DHT22;5101;49.038;8.710;2023-07-30T01:17:04;18.30;99.90
10123;DHT22;5101;49.038;8.710;2023-07-30T01:19:30;18.30;99.90
10123;DHT22;5101;49.038;8.710;2023-07-30T01:21:56;18.30;99.90
10123;DHT22;5101;49.038;8.710;2023-07-30T01:24:21;18.30;99.90
10123;DHT22;5101;49.038;8.710;2023-07-30T01:26:55;18.30;99.90
10123;DHT22;5101;49.038;8.710;2023-07-30T01:29:28;18.20;99.90
10123;DHT22;5101;49.038;8.710;2023-07-30T01:31:57;18.20;99.90
10123;DHT22;5101;49.038;8.710;2023-07-30T01:34:27;18.20;99.90
10123;DHT22;5101;49.038;8.710;2023-07-30T01:36:54;18.30;99.90
10123;DHT22;5101;49.038;8.710;2023-07-30T01:39:20;18.30;99.90
10123;DHT22;5101;49.038;8.710;2023-07-30T01:41:46;18.30;99.90
10123;DHT22;5101;49.038;8.710;2023-07-30T01:44:11;18.40;99.90
10123;DHT22;5101;49.038;8.710;2023-07-30T01:46:37;18.40;99.90
10123;DHT22;5101;49.038;8.710;2023-07-30T01:49:02;18.40;99.90
10123;DHT22;5101;49.038;8.710;2023-07-30T01:51:28;18.40;99.90
10123;DHT22;5101;49.038;8.710;2023-07-30T01:53:54;18.40;99.90
10123;DHT22;5101;49.038;8.710;2023-07-30T01:56:19;18.40;99.90
10123;DHT22;5101;49.038;8.710;2023-07-30T01:58:45;18.40;99.90
10123;DHT22;5101;49.038;8.710;2023-07-30T02:01:10;18.40;99.90
10123;DHT22;5101;49.038;8.710;2023-07-30T02:03:36;18.50;99.90
10123;DHT22;5101;49.038;8.710;2023-07-30T02:06:01;18.50;99.90
10123;DHT22;5101;49.038;8.710;2023-07-30T02:08:27;18.50;99.90
10123;DHT22;5101;49.038;8.710;2023-07-30T02:10:56;18.50;99.90
10123;DHT22;5101;49.038;8.710;2023-07-30T02:13:22;18.50;99.90
10123;DHT22;5101;49.038;8.710;2023-07-30T02:15:48;18.50;99.90
10123;DHT22;5101;49.038;8.710;2023-07-30T02:18:13;18.50;99.90
10123;DHT22;5101;49.038;8.710;2023-07-30T02:20:39;18.60;99.90
10123;DHT22;5101;49.038;8.710;2023-07-30T02:23:04;18.60;99.90
10123;DHT22;5101;49.038;8.710;2023-07-30T02:25:30;18.60;99.90
10123;DHT22;5101;49.038;8.710;2023-07-30T02:27:56;18.60;99.90
10123;DHT22;5101;49.038;8.710;2023-07-30T02:30:21;18.60;99.90
10123;DHT22;5101;49.038;8.710;2023-07-30T02:32:47;18.60;99.90
10123;DHT22;5101;49.038;8.710;2023-07-30T02:35:12;18.60;99.90
10123;DHT22;5101;49.038;8.710;2023-07-30T02:37:38;18.70;99.90
10123;DHT22;5101;49.038;8.710;2023-07-30T02:40:04;18.70;99.90
10123;DHT22;5101;49.038;8.710;2023-07-30T02:42:30;18.70;99.90
10123;DHT22;5101;49.038;8.710;2023-07-30T02:44:56;18.70;99.90
10123;DHT22;5101;49.038;8.710;2023-07-30T02:47:21;18.80;99.90
10123;DHT22;5101;49.038;8.710;2023-07-30T02:49:47;18.80;99.90
10123;DHT22;5101;49.038;8.710;2023-07-30T02:52:12;18.80;99.90
10123;DHT22;5101;49.038;8.710;2023-07-30T02:54:38;18.80;99.90
10123;DHT22;5101;49.038;8.710;2023-07-30T02:57:04;18.80;99.90
10123;DHT22;5101;49.038;8.710;2023-07-30T02:59:29;18.90;99.90
10123;DHT22;5101;49.038;8.710;2023-07-30T03:01:55;18.90;99.90
10123;DHT22;5101;49.038;8.710;2023-07-30T03:04:20;18.90;99.90
10123;DHT22;5101;49.038;8.710;2023-07-30T03:06:46;18.90;99.90
10123;DHT22;5101;49.038;8.710;2023-07-30T03:09:11;19.00;99.90
10123;DHT22;5101;49.038;8.710;2023-07-30T03:11:37;19.00;99.90
10123;DHT22;5101;49.038;8.710;2023-07-30T03:14:02;19.00;99.90
10123;DHT22;5101;49.038;8.710;2023-07-30T03:16:28;19.00;99.90
10123;DHT22;5101;49.038;8.710;2023-07-30T03:18:53;19.00;99.90
10123;DHT22;5101;49.038;8.710;2023-07-30T03:21:19;19.00;99.90
10123;DHT22;5101;49.038;8.710;2023-07-30T03:23:44;19.00;99.90
10123;DHT22;5101;49.038;8.710;2023-07-30T03:26:10;19.10;99.90
10123;DHT22;5101;49.038;8.710;2023-07-30T03:28:36;19.10;99.90
10123;DHT22;5101;49.038;8.710;2023-07-30T03:31:01;19.10;99.90
10123;DHT22;5101;49.038;8.710;2023-07-30T03:33:27;19.10;99.90
10123;DHT22;5101;49.038;8.710;2023-07-30T03:35:52;19.10;99.90
10123;DHT22;5101;49.038;8.710;2023-07-30T03:38:18;19.10;99.90
10123;DHT22;5101;49.038;8.710;2023-07-30T03:40:43;19.10;99.90
10123;DHT22;5101;49.038;8.710;2023-07-30T03:43:09;19.10;99.90
10123;DHT22;5101;49.038;8.710;2023-07-30T03:45:34;19.20;99.90
10123;DHT22;5101;49.038;8.710;2023-07-30T03:48:00;19.20;99.90
10123;DHT22;5101;49.038;8.710;2023-07-30T03:50:25;19.20;99.90
10123;DHT22;5101;49.038;8.710;2023-07-30T03:52:51;19.20;99.90
10123;DHT22;5101;49.038;8.710;2023-07-30T03:55:16;19.20;99.90
10123;DHT22;5101;49.038;8.710;2023-07-30T03:57:42;19.20;99.90
10123;DHT22;5101;49.038;8.710;2023-07-30T04:00:07;19.20;99.90
10123;DHT22;5101;49.038;8.710;2023-07-30T04:02:33;19.30;99.90
10123;DHT22;5101;49.038;8.710;2023-07-30T04:04:58;19.30;99.90
10123;DHT22;5101;49.038;8.710;2023-07-30T04:07:24;19.30;99.90
10123;DHT22;5101;49.038;8.710;2023-07-30T04:09:49;19.30;99.90
10123;DHT22;5101;49.038;8.710;2023-07-30T04:12:15;19.20;99.90
10123;DHT22;5101;49.038;8.710;2023-07-30T04:14:40;19.20;99.90
10123;DHT22;5101;49.038;8.710;2023-07-30T04:17:06;19.20;99.90
10123;DHT22;5101;49.038;8.710;2023-07-30T04:19:31;19.20;99.90
10123;DHT22;5101;49.038;8.710;2023-07-30T04:21:57;19.20;99.90
10123;DHT22;5101;49.038;8.710;2023-07-30T04:24:22;19.10;99.90
10123;DHT22;5101;49.038;8.710;2023-07-30T04:26:48;19.20;99.90
10123;DHT22;5101;49.038;8.710;2023-07-30T04:29:13;19.20;99.90
10123;DHT22;5101;49.038;8.710;2023-07-30T04:31:40;19.20;99.90
10123;DHT22;5101;49.038;8.710;2023-07-30T04:34:05;19.20;99.90
10123;DHT22;5101;49.038;8.710;2023-07-30T04:36:31;19.20;99.90
10123;DHT22;5101;49.038;8.710;2023-07-30T04:38:56;19.20;99.90
10123;DHT22;5101;49.038;8.710;2023-07-30T04:41:22;19.10;99.90
10123;DHT22;5101;49.038;8.710;2023-07-30T04:43:47;19.10;99.90
10123;DHT22;5101;49.038;8.710;2023-07-30T04:46:13;19.00;99.90
10123;DHT22;5101;49.038;8.710;2023-07-30T04:48:38;19.00;99.90
10123;DHT22;5101;49.038;8.710;2023-07-30T04:51:04;19.00;99.90
10123;DHT22;5101;49.038;8.710;2023-07-30T04:53:29;19.00;99.90
10123;DHT22;5101;49.038;8.710;2023-07-30T04:55:56;18.90;99.90
10123;DHT22;5101;49.038;8.710;2023-07-30T04:58:22;19.00;99.90
10123;DHT22;5101;49.038;8.710;2023-07-30T05:00:48;19.00;99.90
10123;DHT22;5101;49.038;8.710;2023-07-30T05:03:14;18.90;99.90
10123;DHT22;5101;49.038;8.710;2023-07-30T05:05:40;18.90;99.90
10123;DHT22;5101;49.038;8.710;2023-07-30T05:08:06;18.90;99.90
10123;DHT22;5101;49.038;8.710;2023-07-30T05:10:31;19.00;99.90
10123;DHT22;5101;49.038;8.710;2023-07-30T05:12:57;18.90;99.90
10123;DHT22;5101;49.038;8.710;2023-07-30T05:15:22;18.90;99.90
10123;DHT22;5101;49.038;8.710;2023-07-30T05:17:47;18.90;99.90
10123;DHT22;5101;49.038;8.710;2023-07-30T05:20:13;18.90;99.90
10123;DHT22;5101;49.038;8.710;2023-07-30T05:22:39;18.90;99.90
10123;DHT22;5101;49.038;8.710;2023-07-30T05:25:04;18.90;99.90
10123;DHT22;5101;49.038;8.710;2023-07-30T05:27:30;19.00;99.90
10123;DHT22;5101;49.038;8.710;2023-07-30T05:29:57;19.00;99.90
10123;DHT22;5101;49.038;8.710;2023-07-30T05:32:22;19.00;99.90
10123;DHT22;5101;49.038;8.710;2023-07-30T05:34:48;19.00;99.90
10123;DHT22;5101;49.038;8.710;2023-07-30T05:37:13;19.10;99.90
10123;DHT22;5101;49.038;8.710;2023-07-30T05:39:39;19.10;99.90
10123;DHT22;5101;49.038;8.710;2023-07-30T05:42:04;19.10;99.90
10123;DHT22;5101;49.038;8.710;2023-07-30T05:44:30;19.10;99.90
10123;DHT22;5101;49.038;8.710;2023-07-30T05:46:56;19.20;99.90
10123;DHT22;5101;49.038;8.710;2023-07-30T05:49:21;19.20;99.90
10123;DHT22;5101;49.038;8.710;2023-07-30T05:51:46;19.10;99.90
10123;DHT22;5101;49.038;8.710;2023-07-30T05:54:12;19.20;99.90
10123;DHT22;5101;49.038;8.710;2023-07-30T05:56:38;19.30;99.90
10123;DHT22;5101;49.038;8.710;2023-07-30T05:59:03;19.30;99.90
10123;DHT22;5101;49.038;8.710;2023-07-30T06:01:29;19.40;99.90
10123;DHT22;5101;49.038;8.710;2023-07-30T06:03:54;19.50;99.90
10123;DHT22;5101;49.038;8.710;2023-07-30T06:06:20;19.50;99.90
10123;DHT22;5101;49.038;8.710;2023-07-30T06:08:52;19.60;99.90
10123;DHT22;5101;49.038;8.710;2023-07-30T06:11:18;19.70;99.90
10123;DHT22;5101;49.038;8.710;2023-07-30T06:13:43;19.70;99.90
10123;DHT22;5101;49.038;8.710;2023-07-30T06:16:10;19.80;99.90
10123;DHT22;5101;49.038;8.710;2023-07-30T06:18:35;19.90;99.90
10123;DHT22;5101;49.038;8.710;2023-07-30T06:21:01;19.90;99.90
10123;DHT22;5101;49.038;8.710;2023-07-30T06:23:26;20.00;99.90
10123;DHT22;5101;49.038;8.710;2023-07-30T06:25:52;20.00;99.90
10123;DHT22;5101;49.038;8.710;2023-07-30T06:28:17;20.10;99.90
10123;DHT22;5101;49.038;8.710;2023-07-30T06:30:43;20.30;99.90
10123;DHT22;5101;49.038;8.710;2023-07-30T06:33:09;20.40;99.90
10123;DHT22;5101;49.038;8.710;2023-07-30T06:35:34;20.60;99.90
10123;DHT22;5101;49.038;8.710;2023-07-30T06:38:00;20.80;99.90
10123;DHT22;5101;49.038;8.710;2023-07-30T06:40:25;21.00;99.90
10123;DHT22;5101;49.038;8.710;2023-07-30T06:42:51;21.20;99.90
10123;DHT22;5101;49.038;8.710;2023-07-30T06:45:16;21.40;99.90
10123;DHT22;5101;49.038;8.710;2023-07-30T06:47:42;21.50;99.90
10123;DHT22;5101;49.038;8.710;2023-07-30T06:50:07;21.70;99.90
10123;DHT22;5101;49.038;8.710;2023-07-30T06:52:36;21.70;99.90
10123;DHT22;5101;49.038;8.710;2023-07-30T06:55:02;21.70;99.90
10123;DHT22;5101;49.038;8.710;2023-07-30T06:57:29;21.60;99.90
10123;DHT22;5101;49.038;8.710;2023-07-30T06:59:55;21.50;99.90
10123;DHT22;5101;49.038;8.710;2023-07-30T07:02:20;21.50;99.90
10123;DHT22;5101;49.038;8.710;2023-07-30T07:04:46;21.50;99.90
10123;DHT22;5101;49.038;8.710;2023-07-30T07:07:11;21.40;99.90
10123;DHT22;5101;49.038;8.710;2023-07-30T07:09:37;21.30;99.90
10123;DHT22;5101;49.038;8.710;2023-07-30T07:12:02;21.20;99.90
10123;DHT22;5101;49.038;8.710;2023-07-30T07:14:28;21.10;99.90
10123;DHT22;5101;49.038;8.710;2023-07-30T07:16:54;21.00;99.90
10123;DHT22;5101;49.038;8.710;2023-07-30T07:19:23;21.00;99.90
10123;DHT22;5101;49.038;8.710;2023-07-30T07:21:48;20.90;99.90
10123;DHT22;5101;49.038;8.710;2023-07-30T07:24:14;20.80;99.90
10123;DHT22;5101;49.038;8.710;2023-07-30T07:26:40;20.80;99.90
10123;DHT22;5101;49.038;8.710;2023-07-30T07:29:06;20.70;99.90
10123;DHT22;5101;49.038;8.710;2023-07-30T07:31:31;20.70;99.90
10123;DHT22;5101;49.038;8.710;2023-07-30T07:33:57;20.70;99.90
10123;DHT22;5101;49.038;8.710;2023-07-30T07:36:22;20.70;99.90
10123;DHT22;5101;49.038;8.710;2023-07-30T07:38:48;20.70;99.90
10123;DHT22;5101;49.038;8.710;2023-07-30T07:41:14;20.60;99.90
10123;DHT22;5101;49.038;8.710;2023-07-30T07:43:44;20.60;99.90
10123;DHT22;5101;49.038;8.710;2023-07-30T07:46:09;20.50;99.90
10123;DHT22;5101;49.038;8.710;2023-07-30T07:48:40;20.50;99.90
10123;DHT22;5101;49.038;8.710;2023-07-30T07:51:06;20.50;99.90
10123;DHT22;5101;49.038;8.710;2023-07-30T07:53:31;20.50;99.90
10123;DHT22;5101;49.038;8.710;2023-07-30T07:55:57;20.50;99.90
10123;DHT22;5101;49.038;8.710;2023-07-30T07:58:22;20.50;99.90
10123;DHT22;5101;49.038;8.710;2023-07-30T08:00:48;20.50;99.90
10123;DHT22;5101;49.038;8.710;2023-07-30T08:03:13;20.50;99.90
10123;DHT22;5101;49.038;8.710;2023-07-30T08:05:39;20.60;99.90
10123;DHT22;5101;49.038;8.710;2023-07-30T08:08:04;20.70;99.90
10123;DHT22;5101;49.038;8.710;2023-07-30T08:10:30;20.80;99.90
10123;DHT22;5101;49.038;8.710;2023-07-30T08:12:55;21.00;99.90
10123;DHT22;5101;49.038;8.710;2023-07-30T08:15:21;21.40;99.90
10123;DHT22;5101;49.038;8.710;2023-07-30T08:17:46;21.80;99.90
10123;DHT22;5101;49.038;8.710;2023-07-30T08:20:12;22.00;99.90
10123;DHT22;5101;49.038;8.710;2023-07-30T08:22:37;22.40;99.90
10123;DHT22;5101;49.038;8.710;2023-07-30T08:25:03;22.70;99.90
10123;DHT22;5101;49.038;8.710;2023-07-30T08:27:29;23.00;99.90
10123;DHT22;5101;49.038;8.710;2023-07-30T08:29:54;23.20;99.90
10123;DHT22;5101;49.038;8.710;2023-07-30T08:32:20;23.20;99.90
10123;DHT22;5101;49.038;8.710;2023-07-30T08:34:45;23.30;99.90
10123;DHT22;5101;49.038;8.710;2023-07-30T08:37:11;23.40;99.90
10123;DHT22;5101;49.038;8.710;2023-07-30T08:39:36;23.40;99.90
10123;DHT22;5101;49.038;8.710;2023-07-30T08:42:02;23.40;99.90
10123;DHT22;5101;49.038;8.710;2023-07-30T08:44:28;23.30;99.90
10123;DHT22;5101;49.038;8.710;2023-07-30T08:46:54;23.30;99.90
10123;DHT22;5101;49.038;8.710;2023-07-30T08:49:20;23.30;99.90
10123;DHT22;5101;49.038;8.710;2023-07-30T08:51:48;23.30;99.90
10123;DHT22;5101;49.038;8.710;2023-07-30T08:54:14;23.20;99.90
10123;DHT22;5101;49.038;8.710;2023-07-30T08:56:41;23.30;99.90
10123;DHT22;5101;49.038;8.710;2023-07-30T08:59:07;23.50;99.90
10123;DHT22;5101;49.038;8.710;2023-07-30T09:01:37;23.50;99.90
10123;DHT22;5101;49.038;8.710;2023-07-30T09:04:06;23.80;99.90
10123;DHT22;5101;49.038;8.710;2023-07-30T09:06:32;23.90;99.90
10123;DHT22;5101;49.038;8.710;2023-07-30T09:08:58;24.00;99.90
10123;DHT22;5101;49.038;8.710;2023-07-30T09:11:26;24.10;99.90
10123;DHT22;5101;49.038;8.710;2023-07-30T09:13:54;24.10;99.90
10123;DHT22;5101;49.038;8.710;2023-07-30T09:16:25;24.30;99.90
10123;DHT22;5101;49.038;8.710;2023-07-30T09:18:50;24.60;99.80
10123;DHT22;5101;49.038;8.710;2023-07-30T09:21:18;24.80;98.10
10123;DHT22;5101;49.038;8.710;2023-07-30T09:23:45;24.80;96.50
10123;DHT22;5101;49.038;8.710;2023-07-30T09:26:11;24.90;96.00
10123;DHT22;5101;49.038;8.710;2023-07-30T09:28:37;24.90;95.40
10123;DHT22;5101;49.038;8.710;2023-07-30T09:31:05;24.90;94.80
10123;DHT22;5101;49.038;8.710;2023-07-30T09:33:31;24.90;94.40
10123;DHT22;5101;49.038;8.710;2023-07-30T09:35:58;24.90;94.10
10123;DHT22;5101;49.038;8.710;2023-07-30T09:38:24;25.00;93.30
10123;DHT22;5101;49.038;8.710;2023-07-30T09:40:51;25.00;93.50
10123;DHT22;5101;49.038;8.710;2023-07-30T09:43:18;25.00;93.70
10123;DHT22;5101;49.038;8.710;2023-07-30T09:45:45;25.00;93.70
10123;DHT22;5101;49.038;8.710;2023-07-30T09:48:13;24.90;93.70
10123;DHT22;5101;49.038;8.710;2023-07-30T09:50:39;25.00;93.80
10123;DHT22;5101;49.038;8.710;2023-07-30T09:53:05;25.00;93.90
10123;DHT22;5101;49.038;8.710;2023-07-30T09:55:31;25.10;93.40
10123;DHT22;5101;49.038;8.710;2023-07-30T09:57:56;25.10;92.60
10123;DHT22;5101;49.038;8.710;2023-07-30T10:00:22;24.90;92.10
10123;DHT22;5101;49.038;8.710;2023-07-30T10:02:49;24.90;92.10
10123;DHT22;5101;49.038;8.710;2023-07-30T10:05:16;25.00;91.70
10123;DHT22;5101;49.038;8.710;2023-07-30T10:07:57;24.90;90.90
10123;DHT22;5101;49.038;8.710;2023-07-30T10:10:25;24.80;90.50
10123;DHT22;5101;49.038;8.710;2023-07-30T10:12:53;24.70;90.80
10123;DHT22;5101;49.038;8.710;2023-07-30T10:15:20;24.70;90.70
10123;DHT22;5101;49.038;8.710;2023-07-30T10:17:50;24.50;90.00
10123;DHT22;5101;49.038;8.710;2023-07-30T10:20:21;24.40;90.20
10123;DHT22;5101;49.038;8.710;2023-07-30T10:22:51;24.40;90.50
10123;DHT22;5101;49.038;8.710;2023-07-30T10:25:30;24.30;91.10
10123;DHT22;5101;49.038;8.710;2023-07-30T10:27:57;24.50;91.50
10123;DHT22;5101;49.038;8.710;2023-07-30T10:30:30;24.70;91.90
10123;DHT22;5101;49.038;8.710;2023-07-30T10:35:44;25.00;90.90
10123;DHT22;5101;49.038;8.710;2023-07-30T10:38:18;25.10;90.90
10123;DHT22;5101;49.038;8.710;2023-07-30T10:41:01;25.10;88.60
10123;DHT22;5101;49.038;8.710;2023-07-30T10:43:28;24.90;87.10
10123;DHT22;5101;49.038;8.710;2023-07-30T10:45:54;24.80;87.70
10123;DHT22;5101;49.038;8.710;2023-07-30T10:48:29;24.80;87.60
10123;DHT22;5101;49.038;8.710;2023-07-30T10:50:56;24.80;86.30
10123;DHT22;5101;49.038;8.710;2023-07-30T10:53:21;24.70;85.20
10123;DHT22;5101;49.038;8.710;2023-07-30T10:55:47;24.60;84.80
10123;DHT22;5101;49.038;8.710;2023-07-30T10:58:13;24.60;84.50
10123;DHT22;5101;49.038;8.710;2023-07-30T11:00:39;24.50;84.10
10123;DHT22;5101;49.038;8.710;2023-07-30T11:03:05;24.40;83.80
10123;DHT22;5101;49.038;8.710;2023-07-30T11:05:30;24.50;84.60
10123;DHT22;5101;49.038;8.710;2023-07-30T11:07:56;24.50;85.80
10123;DHT22;5101;49.038;8.710;2023-07-30T11:10:22;24.70;86.40
10123;DHT22;5101;49.038;8.710;2023-07-30T11:12:48;24.90;85.40
10123;DHT22;5101;49.038;8.710;2023-07-30T11:15:15;24.90;83.90
10123;DHT22;5101;49.038;8.710;2023-07-30T11:17:40;25.00;81.80
10123;DHT22;5101;49.038;8.710;2023-07-30T11:20:06;25.10;82.10
10123;DHT22;5101;49.038;8.710;2023-07-30T11:22:35;25.10;83.00
10123;DHT22;5101;49.038;8.710;2023-07-30T11:25:00;25.30;82.50
10123;DHT22;5101;49.038;8.710;2023-07-30T11:27:47;25.30;82.20
10123;DHT22;5101;49.038;8.710;2023-07-30T11:30:12;25.50;83.10
10123;DHT22;5101;49.038;8.710;2023-07-30T11:32:38;25.60;81.60
10123;DHT22;5101;49.038;8.710;2023-07-30T11:35:05;25.60;79.20
10123;DHT22;5101;49.038;8.710;2023-07-30T11:37:31;25.50;79.30
10123;DHT22;5101;49.038;8.710;2023-07-30T11:39:57;25.50;78.40
10123;DHT22;5101;49.038;8.710;2023-07-30T11:42:23;25.50;77.60
10123;DHT22;5101;49.038;8.710;2023-07-30T11:44:48;25.60;76.20
10123;DHT22;5101;49.038;8.710;2023-07-30T11:47:21;25.60;76.50
10123;DHT22;5101;49.038;8.710;2023-07-30T11:49:57;25.70;77.40
10123;DHT22;5101;49.038;8.710;2023-07-30T11:52:22;25.80;75.70
10123;DHT22;5101;49.038;8.710;2023-07-30T11:54:48;25.80;74.70
10123;DHT22;5101;49.038;8.710;2023-07-30T11:57:14;25.90;75.00
10123;DHT22;5101;49.038;8.710;2023-07-30T11:59:39;25.90;73.30
10123;DHT22;5101;49.038;8.710;2023-07-30T12:02:07;25.80;70.20
10123;DHT22;5101;49.038;8.710;2023-07-30T12:04:45;25.80;69.90
10123;DHT22;5101;49.038;8.710;2023-07-30T12:07:11;25.70;70.30
10123;DHT22;5101;49.038;8.710;2023-07-30T12:09:36;25.60;69.80
10123;DHT22;5101;49.038;8.710;2023-07-30T12:12:04;25.60;69.80
10123;DHT22;5101;49.038;8.710;2023-07-30T12:17:15;25.60;72.60
10123;DHT22;5101;49.038;8.710;2023-07-30T12:19:43;25.60;73.00
10123;DHT22;5101;49.038;8.710;2023-07-30T12:22:09;25.60;73.40
10123;DHT22;5101;49.038;8.710;2023-07-30T12:24:35;25.60;73.00
10123;DHT22;5101;49.038;8.710;2023-07-30T12:27:00;25.60;72.40
10123;DHT22;5101;49.038;8.710;2023-07-30T12:29:26;25.40;70.80
10123;DHT22;5101;49.038;8.710;2023-07-30T12:31:52;25.30;71.10
10123;DHT22;5101;49.038;8.710;2023-07-30T12:34:19;25.30;71.70
10123;DHT22;5101;49.038;8.710;2023-07-30T12:36:45;25.30;72.40
10123;DHT22;5101;49.038;8.710;2023-07-30T12:39:10;25.30;72.30
10123;DHT22;5101;49.038;8.710;2023-07-30T12:41:36;25.40;72.70
10123;DHT22;5101;49.038;8.710;2023-07-30T12:44:01;25.40;72.40
10123;DHT22;5101;49.038;8.710;2023-07-30T12:46:29;25.40;71.90
10123;DHT22;5101;49.038;8.710;2023-07-30T12:48:55;25.30;71.90
10123;DHT22;5101;49.038;8.710;2023-07-30T12:51:21;25.30;71.10
10123;DHT22;5101;49.038;8.710;2023-07-30T12:53:47;25.30;71.00
10123;DHT22;5101;49.038;8.710;2023-07-30T12:56:12;25.30;71.10
10123;DHT22;5101;49.038;8.710;2023-07-30T12:58:40;25.30;71.00
10123;DHT22;5101;49.038;8.710;2023-07-30T13:01:05;25.20;70.40
10123;DHT22;5101;49.038;8.710;2023-07-30T13:03:31;25.00;69.40
10123;DHT22;5101;49.038;8.710;2023-07-30T13:05:57;25.00;69.40
10123;DHT22;5101;49.038;8.710;2023-07-30T13:08:22;24.90;70.40
10123;DHT22;5101;49.038;8.710;2023-07-30T13:10:48;25.00;71.00
10123;DHT22;5101;49.038;8.710;2023-07-30T13:13:13;24.90;70.80
10123;DHT22;5101;49.038;8.710;2023-07-30T13:15:39;24.90;70.20
10123;DHT22;5101;49.038;8.710;2023-07-30T13:18:04;24.80;69.80
10123;DHT22;5101;49.038;8.710;2023-07-30T13:20:30;24.70;69.20
10123;DHT22;5101;49.038;8.710;2023-07-30T13:22:56;24.50;68.90
10123;DHT22;5101;49.038;8.710;2023-07-30T13:25:22;24.50;70.10
10123;DHT22;5101;49.038;8.710;2023-07-30T13:27:48;24.50;70.20
10123;DHT22;5101;49.038;8.710;2023-07-30T13:30:13;24.40;69.20
10123;DHT22;5101;49.038;8.710;2023-07-30T13:32:39;24.30;69.70
10123;DHT22;5101;49.038;8.710;2023-07-30T13:35:04;24.30;69.70
10123;DHT22;5101;49.038;8.710;2023-07-30T13:37:30;24.20;69.90
10123;DHT22;5101;49.038;8.710;2023-07-30T13:39:55;24.20;70.20
10123;DHT22;5101;49.038;8.710;2023-07-30T13:42:21;24.20;71.70
10123;DHT22;5101;49.038;8.710;2023-07-30T13:44:46;24.20;72.20
10123;DHT22;5101;49.038;8.710;2023-07-30T13:47:12;24.10;71.30
10123;DHT22;5101;49.038;8.710;2023-07-30T13:49:38;24.00;70.80
10123;DHT22;5101;49.038;8.710;2023-07-30T13:52:04;23.90;70.50
10123;DHT22;5101;49.038;8.710;2023-07-30T13:54:29;23.90;70.30
10123;DHT22;5101;49.038;8.710;2023-07-30T13:56:55;23.90;70.20
10123;DHT22;5101;49.038;8.710;2023-07-30T13:59:20;23.80;70.60
10123;DHT22;5101;49.038;8.710;2023-07-30T14:01:46;23.80;70.60
10123;DHT22;5101;49.038;8.710;2023-07-30T14:04:11;23.80;71.10
10123;DHT22;5101;49.038;8.710;2023-07-30T14:06:37;23.80;70.90
10123;DHT22;5101;49.038;8.710;2023-07-30T14:09:02;23.80;70.50
10123;DHT22;5101;49.038;8.710;2023-07-30T14:11:29;23.70;70.40
10123;DHT22;5101;49.038;8.710;2023-07-30T14:13:55;23.70;70.40
10123;DHT22;5101;49.038;8.710;2023-07-30T14:16:21;23.70;70.50
10123;DHT22;5101;49.038;8.710;2023-07-30T14:18:47;23.70;69.10
10123;DHT22;5101;49.038;8.710;2023-07-30T14:21:12;23.70;68.30
10123;DHT22;5101;49.038;8.710;2023-07-30T14:23:38;23.70;67.80
10123;DHT22;5101;49.038;8.710;2023-07-30T14:26:04;23.60;66.20
10123;DHT22;5101;49.038;8.710;2023-07-30T14:28:30;23.60;67.20
10123;DHT22;5101;49.038;8.710;2023-07-30T14:30:55;23.60;64.20
10123;DHT22;5101;49.038;8.710;2023-07-30T14:33:21;23.60;61.50
10123;DHT22;5101;49.038;8.710;2023-07-30T14:35:47;23.50;61.30
10123;DHT22;5101;49.038;8.710;2023-07-30T14:38:12;23.50;61.00
10123;DHT22;5101;49.038;8.710;2023-07-30T14:40:38;23.60;60.80
10123;DHT22;5101;49.038;8.710;2023-07-30T14:43:04;23.50;60.50
10123;DHT22;5101;49.038;8.710;2023-07-30T14:45:29;23.60;59.90
10123;DHT22;5101;49.038;8.710;2023-07-30T14:47:55;23.60;61.10
10123;DHT22;5101;49.038;8.710;2023-07-30T14:50:20;23.60;60.50
10123;DHT22;5101;49.038;8.710;2023-07-30T14:52:46;23.70;60.50
10123;DHT22;5101;49.038;8.710;2023-07-30T14:55:11;23.80;60.60
10123;DHT22;5101;49.038;8.710;2023-07-30T14:57:37;23.80;60.40
10123;DHT22;5101;49.038;8.710;2023-07-30T15:00:03;23.80;61.50
10123;DHT22;5101;49.038;8.710;2023-07-30T15:02:28;23.90;62.50
10123;DHT22;5101;49.038;8.710;2023-07-30T15:04:54;23.90;60.80
10123;DHT22;5101;49.038;8.710;2023-07-30T15:07:20;23.80;58.70
10123;DHT22;5101;49.038;8.710;2023-07-30T15:09:51;23.80;59.20
10123;DHT22;5101;49.038;8.710;2023-07-30T15:12:16;23.80;58.60
10123;DHT22;5101;49.038;8.710;2023-07-30T15:14:42;23.80;57.30
10123;DHT22;5101;49.038;8.710;2023-07-30T15:17:08;23.70;57.10
10123;DHT22;5101;49.038;8.710;2023-07-30T15:19:33;23.70;58.50
10123;DHT22;5101;49.038;8.710;2023-07-30T15:21:59;23.70;56.90
10123;DHT22;5101;49.038;8.710;2023-07-30T15:24:24;23.70;56.70
10123;DHT22;5101;49.038;8.710;2023-07-30T15:26:50;23.80;56.90
10123;DHT22;5101;49.038;8.710;2023-07-30T15:29:15;23.70;56.70
10123;DHT22;5101;49.038;8.710;2023-07-30T15:31:41;23.60;56.60
10123;DHT22;5101;49.038;8.710;2023-07-30T15:34:06;23.60;57.40
10123;DHT22;5101;49.038;8.710;2023-07-30T15:36:32;23.70;56.40
10123;DHT22;5101;49.038;8.710;2023-07-30T15:38:58;23.70;56.20
10123;DHT22;5101;49.038;8.710;2023-07-30T15:41:23;23.70;56.20
10123;DHT22;5101;49.038;8.710;2023-07-30T15:43:49;23.70;56.60